Time;durP1;ratioP1;P1;durP2;ratioP2;P2;SDS_P1;SDS_P2;PMS_P1;PMS_P2;Temp;Humidity;BMP_temperature;BMP_pressure;BME280_temperature;BME280_humidity;BME280_pressure;Samples;Min_cycle;Max_cycle;Signal;HPM_P1;HPM_P2
2022/11/01 00:01:12;;;;;;;17.67;8.55;;;12.60;99.90;;;;;;5052877;28;20381;-76
2022/11/01 00:03:38;;;;;;;17.77;8.40;;;12.60;99.90;;;;;;5053790;28;20021;-76
2022/11/01 00:06:04;;;;;;;15.95;8.52;;;12.70;99.90;;;;;;5052614;28;20025;-76
2022/11/01 00:08:29;;;;;;;14.30;7.53;;;12.70;99.90;;;;;;5046574;28;20040;-75
2022/11/01 00:11:03;;;;;;;17.83;8.25;;;12.60;99.90;;;;;;5050532;28;20025;-75
2022/11/01 00:13:29;;;;;;;;;;;12.60;99.90;;;;;;5054915;28;20522;-76
2022/11/01 00:15:55;;;;;;;16.27;8.30;;;12.60;99.90;;;;;;5051345;28;19924;-76
2022/11/01 00:18:26;;;;;;;13.65;7.97;;;12.60;99.90;;;;;;5051162;28;20033;-75
2022/11/01 00:20:55;;;;;;;14.75;8.25;;;12.60;99.90;;;;;;5049600;28;20443;-76
2022/11/01 00:23:21;;;;;;;16.17;8.63;;;12.60;99.90;;;;;;5050509;28;20025;-75
2022/11/01 00:25:53;;;;;;;18.27;8.20;;;12.60;99.90;;;;;;5051424;28;20533;-75
2022/11/01 00:28:24;;;;;;;19.83;9.13;;;12.50;99.90;;;;;;5050552;28;20037;-76
2022/11/01 00:30:54;;;;;;;16.02;9.07;;;12.50;99.90;;;;;;5048394;28;20032;-76
2022/11/01 00:33:21;;;;;;;21.42;9.40;;;12.50;99.90;;;;;;5065446;28;20032;-76
2022/11/01 00:35:52;;;;;;;17.08;9.75;;;12.50;99.90;;;;;;5053054;28;20021;-76
2022/11/01 00:38:18;;;;;;;17.38;8.65;;;12.50;99.90;;;;;;5049181;28;20555;-76
2022/11/01 00:40:45;;;;;;;16.30;8.65;;;12.50;99.90;;;;;;5051676;28;20433;-76
2022/11/01 00:43:11;;;;;;;14.82;7.88;;;12.50;99.90;;;;;;5050978;28;20084;-76
2022/11/01 00:45:52;;;;;;;16.63;8.35;;;12.50;99.90;;;;;;5053120;28;21157;-76
2022/11/01 00:48:21;;;;;;;21.08;7.90;;;12.50;99.90;;;;;;5051993;28;20031;-76
2022/11/01 00:50:46;;;;;;;20.17;7.93;;;12.50;99.90;;;;;;5054171;28;20385;-75
2022/11/01 00:53:12;;;;;;;17.70;7.70;;;12.40;99.90;;;;;;5051078;28;20029;-76
2022/11/01 00:55:38;;;;;;;18.17;7.85;;;12.50;99.90;;;;;;5050492;28;20048;-76
2022/11/01 00:58:07;;;;;;;14.02;7.50;;;12.40;99.90;;;;;;5054543;28;20025;-77
2022/11/01 01:00:33;;;;;;;12.90;7.50;;;12.50;99.90;;;;;;5055313;28;20030;-76
2022/11/01 01:02:59;;;;;;;19.67;8.43;;;12.40;99.90;;;;;;5049191;28;20041;-76
2022/11/01 01:05:25;;;;;;;19.27;8.20;;;12.40;99.90;;;;;;5049512;28;20041;-76
2022/11/01 01:07:53;;;;;;;15.13;8.18;;;12.40;99.90;;;;;;5051714;28;20397;-76
2022/11/01 01:10:19;;;;;;;15.82;7.45;;;12.40;99.90;;;;;;5052482;28;20036;-76
2022/11/01 01:12:51;;;;;;;18.92;8.73;;;12.40;99.90;;;;;;5048689;28;20204;-76
2022/11/01 01:15:17;;;;;;;19.25;8.98;;;12.40;99.90;;;;;;5050977;28;20029;-76
2022/11/01 01:17:49;;;;;;;18.33;9.20;;;12.40;99.90;;;;;;5048123;28;20009;-75
2022/11/01 01:20:14;;;;;;;18.48;10.02;;;12.40;99.90;;;;;;5050315;28;20017;-76
2022/11/01 01:22:41;;;;;;;16.58;9.50;;;12.30;99.90;;;;;;5049397;28;20389;-75
2022/11/01 01:25:07;;;;;;;21.05;10.27;;;12.30;99.90;;;;;;5048018;28;20025;-76
2022/11/01 01:27:33;;;;;;;18.00;8.02;;;12.30;99.90;;;;;;5049660;28;20036;-76
2022/11/01 01:29:58;;;;;;;20.92;9.00;;;12.20;99.90;;;;;;5048898;28;20029;-76
2022/11/01 01:32:24;;;;;;;18.45;8.95;;;12.20;99.90;;;;;;5050786;28;20025;-76
2022/11/01 01:34:56;;;;;;;18.92;9.40;;;12.20;99.90;;;;;;5048499;28;20388;-76
2022/11/01 01:37:31;;;;;;;16.73;7.97;;;12.10;99.90;;;;;;5051429;28;20021;-76
2022/11/01 01:39:59;;;;;;;15.55;8.05;;;12.10;99.90;;;;;;5047649;28;20021;-74
2022/11/01 01:42:32;;;;;;;14.52;8.10;;;12.10;99.90;;;;;;5050292;28;20024;-75
2022/11/01 01:44:58;;;;;;;16.45;7.80;;;12.00;99.90;;;;;;5048068;28;20040;-75
2022/11/01 01:47:30;;;;;;;16.23;8.70;;;12.00;99.90;;;;;;5042409;28;20025;-75
2022/11/01 01:50:21;;;;;;;18.30;8.48;;;12.00;99.90;;;;;;5045473;28;20394;-75
2022/11/01 01:53:04;;;;;;;16.73;8.18;;;12.00;99.90;;;;;;5048077;28;20451;-76
2022/11/01 01:56:04;;;;;;;12.65;8.25;;;12.00;99.90;;;;;;5052881;28;20051;-76
2022/11/01 01:58:44;;;;;;;15.80;7.78;;;12.00;99.90;;;;;;5046656;28;20048;-76
2022/11/01 02:01:13;;;;;;;17.10;7.82;;;12.00;99.90;;;;;;5050129;28;20445;-75
2022/11/01 02:03:46;;;;;;;16.60;8.18;;;12.00;99.90;;;;;;5048131;28;20029;-75
2022/11/01 02:06:20;;;;;;;14.95;7.45;;;12.00;99.90;;;;;;5043451;28;20034;-75
2022/11/01 02:08:52;;;;;;;17.17;7.50;;;12.00;99.90;;;;;;5049949;28;20036;-75
2022/11/01 02:11:21;;;;;;;14.10;7.60;;;11.90;99.90;;;;;;5047940;28;20028;-74
2022/11/01 02:13:47;;;;;;;14.48;7.43;;;12.00;99.90;;;;;;5051622;28;20032;-75
2022/11/01 02:16:41;;;;;;;13.35;7.32;;;11.90;99.90;;;;;;5044317;28;20061;-75
2022/11/01 02:19:30;;;;;;;16.80;6.35;;;12.00;99.90;;;;;;5047763;28;20028;-75
2022/11/01 02:22:12;;;;;;;12.63;5.78;;;12.00;99.90;;;;;;5050163;28;20041;-75
2022/11/01 02:25:00;;;;;;;14.55;6.47;;;12.00;99.90;;;;;;5047010;28;20497;-74
2022/11/01 02:28:00;;;;;;;13.85;6.57;;;12.00;99.90;;;;;;5049636;28;20358;-75
2022/11/01 02:30:55;;;;;;;13.63;5.80;;;12.00;99.90;;;;;;5066363;28;20553;-76
2022/11/01 02:33:31;;;;;;;16.35;6.30;;;12.00;99.90;;;;;;5041990;28;20497;-75
2022/11/01 02:36:18;;;;;;;17.52;6.22;;;12.10;99.90;;;;;;5049360;28;20056;-75
2022/11/01 02:39:11;;;;;;;10.60;5.63;;;12.10;99.90;;;;;;5043606;28;20092;-76
2022/11/01 02:41:50;;;;;;;11.07;6.22;;;12.10;99.90;;;;;;5047800;28;20382;-76
2022/11/01 02:44:22;;;;;;;12.90;6.05;;;12.10;99.90;;;;;;5045397;28;20444;-76
2022/11/01 02:47:00;;;;;;;10.57;6.30;;;12.20;99.90;;;;;;5051557;28;20025;-76
2022/11/01 02:49:32;;;;;;;11.38;5.60;;;12.10;99.90;;;;;;5047735;28;20440;-76
2022/11/01 02:52:07;;;;;;;12.98;5.80;;;12.10;99.90;;;;;;5046375;28;20111;-76
2022/11/01 02:54:38;;;;;;;12.18;6.03;;;12.10;99.90;;;;;;5050282;28;20319;-77
2022/11/01 02:57:16;;;;;;;12.48;5.35;;;12.10;99.90;;;;;;5038741;28;20539;-75
2022/11/01 02:59:47;;;;;;;14.50;6.63;;;12.10;99.90;;;;;;5046682;28;20029;-76
2022/11/01 03:02:38;;;;;;;16.65;6.28;;;12.10;99.90;;;;;;5050706;28;20532;-75
2022/11/01 03:05:05;;;;;;;18.88;7.55;;;12.10;99.90;;;;;;5048834;28;20025;-76
2022/11/01 03:07:31;;;;;;;14.80;6.28;;;12.20;99.90;;;;;;5050803;28;20053;-76
2022/11/01 03:10:00;;;;;;;13.75;6.65;;;12.10;99.90;;;;;;5048178;28;20067;-76
2022/11/01 03:12:34;;;;;;;16.63;6.28;;;12.20;99.90;;;;;;5049749;28;20392;-76
2022/11/01 03:15:21;;;;;;;12.43;6.35;;;12.20;99.90;;;;;;5047797;28;20528;-76
2022/11/01 03:17:58;;;;;;;11.65;6.57;;;12.10;99.90;;;;;;5059706;28;20059;-77
2022/11/01 03:20:46;;;;;;;16.63;6.35;;;12.20;99.90;;;;;;5056374;28;20025;-80
2022/11/01 03:23:24;;;;;;;21.00;7.18;;;12.10;99.90;;;;;;5057411;28;20048;-79
2022/11/01 03:25:54;;;;;;;12.70;5.88;;;12.10;99.90;;;;;;5056917;28;20029;-79
2022/11/01 03:28:32;;;;;;;13.13;6.70;;;12.10;99.90;;;;;;5057967;28;20032;-79
2022/11/01 03:31:12;;;;;;;13.07;6.50;;;12.10;99.90;;;;;;5041133;28;20473;-79
2022/11/01 03:33:46;;;;;;;10.05;6.38;;;12.20;99.90;;;;;;5059864;28;20067;-80
2022/11/01 03:36:18;;;;;;;11.90;5.75;;;12.20;99.90;;;;;;5060832;28;20792;-80
2022/11/01 03:38:55;;;;;;;12.40;6.32;;;12.10;99.90;;;;;;5056823;28;20412;-79
2022/11/01 03:41:26;;;;;;;17.10;6.63;;;12.20;99.90;;;;;;5056480;28;20029;-80
2022/11/01 03:43:59;;;;;;;15.48;6.80;;;12.20;99.90;;;;;;5057872;28;20074;-79
2022/11/01 03:46:33;;;;;;;12.48;6.07;;;12.20;99.90;;;;;;5053456;28;20029;-79
2022/11/01 03:49:05;;;;;;;14.23;6.63;;;12.20;99.90;;;;;;5057902;28;20036;-79
2022/11/01 03:51:31;;;;;;;14.63;6.57;;;12.20;99.90;;;;;;5059745;28;20032;-79
2022/11/01 03:54:00;;;;;;;18.67;7.13;;;12.20;99.90;;;;;;5065973;28;20021;-79
2022/11/01 03:56:26;;;;;;;14.77;6.90;;;12.20;99.90;;;;;;5057765;28;20025;-79
2022/11/01 03:59:03;;;;;;;13.80;6.82;;;12.30;99.90;;;;;;5062181;28;20096;-79
2022/11/01 04:01:32;;;;;;;16.92;6.40;;;12.30;99.90;;;;;;5057857;28;20039;-79
2022/11/01 04:03:58;;;;;;;11.88;6.15;;;12.30;99.90;;;;;;5057343;28;20025;-78
2022/11/01 04:06:29;;;;;;;11.18;6.35;;;12.30;99.90;;;;;;5055839;28;20025;-79
2022/11/01 04:08:58;;;;;;;11.25;6.55;;;12.30;99.90;;;;;;5057911;28;20436;-79
2022/11/01 04:11:26;;;;;;;11.95;5.88;;;12.30;99.90;;;;;;5058407;28;20055;-79
2022/11/01 04:20:31;;;;;;;17.90;6.95;;;12.30;99.90;;;;;;5057953;28;20039;-79
2022/11/01 04:22:27;;;;;;;11.18;5.40;;;12.40;99.90;;;;;;5059052;28;19931;-79
2022/11/01 04:24:53;;;;;;;15.13;5.97;;;12.40;99.90;;;;;;5058853;28;20024;-79
2022/11/01 04:27:24;;;;;;;11.85;6.32;;;12.40;99.90;;;;;;5058744;28;20524;-79
2022/11/01 04:29:53;;;;;;;12.20;5.93;;;12.40;99.90;;;;;;5054998;28;20029;-79
2022/11/01 04:32:22;;;;;;;12.20;6.05;;;12.50;99.90;;;;;;5057961;28;20040;-79
2022/11/01 04:34:47;;;;;;;16.92;6.53;;;12.50;99.90;;;;;;5073157;28;20024;-79
2022/11/01 04:37:22;;;;;;;15.95;5.40;;;12.50;99.90;;;;;;5058069;28;20074;-79
2022/11/01 04:39:47;;;;;;;12.90;5.55;;;12.50;99.90;;;;;;5061756;28;20151;-79
2022/11/01 04:42:16;;;;;;;12.00;5.63;;;12.50;99.90;;;;;;5060863;28;20076;-78
2022/11/01 04:44:41;;;;;;;16.05;5.70;;;12.50;99.90;;;;;;5062184;28;20393;-79
2022/11/01 04:47:25;;;;;;;17.85;5.43;;;12.50;99.90;;;;;;5061705;28;20037;-79
2022/11/01 04:49:51;;;;;;;14.20;5.80;;;12.60;99.90;;;;;;5059467;28;20032;-79
2022/11/01 04:52:16;;;;;;;9.82;5.22;;;12.60;99.90;;;;;;5062059;28;20033;-79
2022/11/01 04:54:42;;;;;;;13.35;5.63;;;12.60;99.90;;;;;;5060489;28;20017;-79
2022/11/01 04:57:21;;;;;;;10.82;4.95;;;12.60;99.90;;;;;;5061849;28;20031;-79
2022/11/01 04:59:50;;;;;;;17.25;6.40;;;12.60;99.90;;;;;;5056611;28;20017;-80
2022/11/01 05:02:19;;;;;;;13.93;5.97;;;12.60;99.90;;;;;;5062747;28;20061;-78
2022/11/01 05:04:45;;;;;;;17.42;5.93;;;12.60;99.90;;;;;;5051308;28;20017;-78
2022/11/01 05:07:11;;;;;;;11.65;5.55;;;12.60;99.90;;;;;;5073609;28;20433;-78
2022/11/01 05:09:39;;;;;;;15.93;6.82;;;12.60;99.90;;;;;;5080438;28;20103;-78
2022/11/01 05:12:05;;;;;;;15.05;6.20;;;12.60;99.90;;;;;;5062214;28;20025;-80
2022/11/01 05:14:31;;;;;;;11.98;6.60;;;12.60;99.90;;;;;;5057203;28;20032;-79
2022/11/01 05:16:58;;;;;;;12.27;6.57;;;12.60;99.90;;;;;;5058702;28;20104;-80
2022/11/01 05:19:24;;;;;;;11.48;6.35;;;12.60;99.90;;;;;;5058346;28;20420;-79
2022/11/01 05:21:50;;;;;;;13.57;5.88;;;12.60;99.90;;;;;;5059736;28;20078;-78
2022/11/01 05:24:25;;;;;;;14.95;5.47;;;12.60;99.90;;;;;;5057592;28;20030;-79
2022/11/01 05:27:09;;;;;;;14.32;5.70;;;12.60;99.90;;;;;;5060304;28;20108;-78
2022/11/01 05:29:41;;;;;;;13.77;5.65;;;12.60;99.90;;;;;;5053912;28;20492;-78
2022/11/01 05:32:09;;;;;;;12.93;6.10;;;12.70;99.90;;;;;;5053776;28;20037;-78
2022/11/01 05:34:45;;;;;;;10.63;5.60;;;12.70;99.90;;;;;;5058655;28;20032;-78
2022/11/01 05:37:14;;;;;;;18.13;5.93;;;12.70;99.90;;;;;;5056091;28;20017;-78
2022/11/01 05:39:40;;;;;;;9.98;5.00;;;12.70;99.90;;;;;;5050295;28;20547;-79
2022/11/01 05:42:12;;;;;;;12.90;5.43;;;12.70;99.90;;;;;;5056144;28;20056;-78
2022/11/01 05:44:37;;;;;;;13.07;5.25;;;12.70;99.90;;;;;;5055958;28;20032;-79
2022/11/01 05:47:04;;;;;;;14.15;5.70;;;12.70;99.90;;;;;;5056725;28;20017;-80
2022/11/01 05:49:39;;;;;;;12.38;6.28;;;12.70;99.90;;;;;;5056219;28;20028;-78
2022/11/01 05:52:07;;;;;;;11.93;5.45;;;12.70;99.90;;;;;;5047106;28;20033;-78
2022/11/01 05:54:36;;;;;;;65.90;35.10;;;12.70;99.90;;;;;;5052889;28;20071;-78
2022/11/01 05:57:04;;;;;;;24.30;14.10;;;12.70;99.90;;;;;;5057877;28;20389;-79
2022/11/01 05:59:29;;;;;;;25.90;12.13;;;12.70;99.90;;;;;;5055638;28;20017;-71
2022/11/01 06:01:58;;;;;;;20.98;8.75;;;12.80;99.90;;;;;;5052900;28;20029;-70
2022/11/01 06:04:23;;;;;;;21.30;11.07;;;12.80;99.90;;;;;;5061270;28;20053;-70
2022/11/01 06:06:49;;;;;;;20.63;9.15;;;12.80;99.90;;;;;;5057500;28;20384;-70
2022/11/01 06:09:21;;;;;;;17.38;8.75;;;12.90;99.90;;;;;;5054129;28;20032;-70
2022/11/01 06:11:49;;;;;;;15.57;5.95;;;12.90;99.90;;;;;;5052443;28;20061;-70
2022/11/01 06:14:15;;;;;;;10.27;5.22;;;12.90;99.90;;;;;;5051267;28;20497;-73
2022/11/01 06:16:40;;;;;;;11.13;5.13;;;12.90;99.90;;;;;;5060807;28;20025;-73
2022/11/01 06:19:07;;;;;;;9.35;4.97;;;13.00;99.90;;;;;;5044882;28;20090;-72
2022/11/01 06:21:33;;;;;;;12.43;5.55;;;13.00;99.90;;;;;;5046769;28;20090;-72
2022/11/01 06:23:58;;;;;;;13.13;5.20;;;13.10;99.90;;;;;;5053114;28;20037;-74
2022/11/01 06:26:24;;;;;;;12.77;5.18;;;13.10;99.90;;;;;;5050159;28;20031;-76
2022/11/01 06:28:50;;;;;;;7.03;3.88;;;13.20;99.90;;;;;;5046106;28;20060;-73
2022/11/01 06:31:15;;;;;;;6.32;2.60;;;13.20;99.90;;;;;;5047865;28;20151;-74
2022/11/01 06:33:41;;;;;;;9.45;2.97;;;13.20;99.90;;;;;;5053696;28;20036;-74
2022/11/01 06:36:07;;;;;;;7.05;3.58;;;13.20;99.90;;;;;;5051655;28;20109;-74
2022/11/01 06:38:33;;;;;;;4.15;1.90;;;13.30;99.90;;;;;;5047586;28;20032;-75
2022/11/01 06:40:58;;;;;;;6.25;2.50;;;13.30;99.90;;;;;;5046047;28;20051;-74
2022/11/01 06:43:24;;;;;;;5.20;2.13;;;13.30;99.90;;;;;;5042935;28;20045;-74
2022/11/01 06:45:49;;;;;;;5.30;2.00;;;13.40;99.90;;;;;;5046176;28;20040;-75
2022/11/01 06:48:15;;;;;;;5.78;2.03;;;13.50;99.90;;;;;;5049211;28;20035;-75
2022/11/01 06:50:41;;;;;;;6.55;2.47;;;13.50;99.90;;;;;;5050764;28;20508;-74
2022/11/01 06:53:09;;;;;;;5.57;2.03;;;13.50;99.90;;;;;;5043089;28;20043;-74
2022/11/01 06:55:36;;;;;;;5.15;1.92;;;13.50;99.90;;;;;;5049575;28;20022;-74
2022/11/01 06:58:02;;;;;;;4.40;1.50;;;13.60;99.90;;;;;;5049191;28;20045;-75
2022/11/01 07:00:29;;;;;;;5.40;1.67;;;13.60;99.90;;;;;;5052799;28;20045;-74
2022/11/01 07:03:06;;;;;;;4.20;2.47;;;13.60;99.90;;;;;;5047004;28;20052;-75
2022/11/01 07:05:34;;;;;;;8.02;2.50;;;13.60;99.90;;;;;;5050965;28;20112;-74
2022/11/01 07:08:01;;;;;;;4.80;2.47;;;13.60;99.90;;;;;;5048202;28;20377;-74
2022/11/01 07:10:27;;;;;;;4.35;2.00;;;13.70;99.90;;;;;;5048337;28;20035;-72
2022/11/01 07:13:04;;;;;;;5.82;1.85;;;13.70;99.90;;;;;;5063027;28;20450;-74
2022/11/01 07:15:30;;;;;;;4.05;1.98;;;13.70;99.90;;;;;;5048380;28;20025;-75
2022/11/01 07:18:00;;;;;;;5.25;2.22;;;13.70;99.90;;;;;;5051934;28;20517;-74
2022/11/01 07:20:27;;;;;;;6.18;1.70;;;13.70;99.90;;;;;;5049655;28;20025;-74
2022/11/01 07:23:00;;;;;;;3.33;1.80;;;13.70;99.90;;;;;;5051635;28;20501;-75
2022/11/01 07:25:27;;;;;;;3.42;1.55;;;13.70;99.90;;;;;;5045959;28;20510;-74
2022/11/01 07:27:52;;;;;;;7.80;1.77;;;13.70;99.90;;;;;;5049993;28;20377;-74
2022/11/01 07:30:18;;;;;;;4.57;2.42;;;13.70;99.90;;;;;;5039894;28;20086;-74
2022/11/01 07:32:44;;;;;;;3.88;2.22;;;13.80;99.90;;;;;;5034926;28;20025;-74
2022/11/01 07:35:10;;;;;;;3.63;1.67;;;13.80;99.90;;;;;;5055349;28;20025;-75
2022/11/01 07:37:35;;;;;;;5.18;1.80;;;13.80;99.90;;;;;;5045219;28;20032;-75
2022/11/01 07:40:02;;;;;;;3.35;1.48;;;13.80;99.90;;;;;;5042006;28;20127;-76
2022/11/01 07:42:28;;;;;;;7.95;2.13;;;13.90;99.90;;;;;;5050535;28;20759;-76
2022/11/01 07:44:54;;;;;;;5.32;2.42;;;13.90;99.90;;;;;;5048462;28;20028;-75
2022/11/01 07:47:19;;;;;;;4.65;2.22;;;13.90;99.90;;;;;;5046920;28;20033;-74
2022/11/01 07:49:46;;;;;;;7.95;2.70;;;13.90;99.90;;;;;;5048898;28;20044;-75
2022/11/01 07:52:12;;;;;;;5.45;1.90;;;14.00;99.90;;;;;;5047798;28;20478;-75
2022/11/01 07:54:38;;;;;;;4.43;2.10;;;14.00;99.90;;;;;;5049224;28;20053;-75
2022/11/01 07:57:07;;;;;;;5.22;2.15;;;14.10;99.90;;;;;;5041303;28;20075;-74
2022/11/01 07:59:33;;;;;;;3.97;2.00;;;14.10;99.90;;;;;;5044186;28;20454;-76
2022/11/01 08:01:59;;;;;;;6.93;2.40;;;14.10;99.90;;;;;;5047583;28;20120;-76
2022/11/01 08:04:25;;;;;;;5.55;2.15;;;14.10;99.90;;;;;;5051976;28;20032;-76
2022/11/01 08:06:50;;;;;;;9.15;2.58;;;14.20;99.90;;;;;;5048534;28;20037;-75
2022/11/01 08:09:16;;;;;;;3.65;2.10;;;14.20;99.90;;;;;;5044862;28;20048;-75
2022/11/01 08:11:42;;;;;;;4.13;2.30;;;14.20;99.90;;;;;;5045209;28;20032;-75
2022/11/01 08:14:08;;;;;;;7.22;2.25;;;14.30;99.90;;;;;;5054540;28;20513;-76
2022/11/01 08:16:34;;;;;;;3.92;1.88;;;14.30;99.90;;;;;;5052357;28;20104;-75
2022/11/01 08:18:59;;;;;;;2.92;1.58;;;14.40;99.90;;;;;;5051837;28;20470;-76
2022/11/01 08:21:25;;;;;;;3.22;1.67;;;14.40;99.90;;;;;;5052847;28;20033;-76
2022/11/01 08:23:51;;;;;;;3.83;1.77;;;14.50;99.90;;;;;;5050468;28;20447;-75
2022/11/01 08:26:17;;;;;;;5.97;3.33;;;14.50;99.90;;;;;;5056673;28;20021;-76
2022/11/01 08:28:42;;;;;;;3.40;2.88;;;14.60;99.90;;;;;;5054847;28;20131;-75
2022/11/01 08:31:09;;;;;;;2.42;1.85;;;14.60;99.90;;;;;;5053235;28;20303;-76
2022/11/01 08:33:35;;;;;;;2.22;1.17;;;14.70;99.90;;;;;;5054274;28;20052;-76
2022/11/01 08:36:01;;;;;;;3.15;1.30;;;14.70;99.90;;;;;;5051708;28;20017;-76
2022/11/01 08:38:27;;;;;;;2.17;1.00;;;14.80;99.90;;;;;;5046538;28;20022;-75
2022/11/01 08:40:57;;;;;;;2.45;1.08;;;14.80;99.90;;;;;;5055894;28;20088;-76
2022/11/01 08:43:23;;;;;;;3.08;1.30;;;14.90;99.90;;;;;;5058471;28;20021;-76
2022/11/01 08:45:49;;;;;;;1.65;0.90;;;14.90;99.90;;;;;;5054239;28;20029;-75
2022/11/01 08:48:15;;;;;;;1.75;1.10;;;15.00;99.90;;;;;;5049178;28;20555;-76
2022/11/01 08:50:40;;;;;;;1.73;0.98;;;15.00;99.90;;;;;;5052457;28;20564;-75
2022/11/01 08:53:08;;;;;;;1.38;0.70;;;15.10;99.90;;;;;;5046973;28;20039;-74
2022/11/01 08:55:37;;;;;;;2.75;0.68;;;15.10;99.90;;;;;;5050331;28;20033;-77
2022/11/01 08:58:06;;;;;;;1.27;0.90;;;15.20;99.90;;;;;;5053567;28;20025;-75
2022/11/01 09:00:33;;;;;;;3.17;1.08;;;15.20;99.90;;;;;;5058436;28;20522;-75
2022/11/01 09:02:58;;;;;;;1.35;0.73;;;15.30;99.90;;;;;;5051735;28;20086;-75
2022/11/01 09:05:24;;;;;;;3.53;1.13;;;15.30;99.90;;;;;;5053558;28;20112;-75
2022/11/01 09:07:55;;;;;;;1.35;1.00;;;15.40;99.90;;;;;;5050762;28;20074;-74
2022/11/01 09:10:21;;;;;;;2.75;0.88;;;15.40;99.90;;;;;;5048211;28;20029;-75
2022/11/01 09:12:46;;;;;;;2.45;1.08;;;15.50;99.90;;;;;;5050883;28;20051;-75
2022/11/01 09:15:12;;;;;;;3.05;1.05;;;15.50;99.90;;;;;;5049990;28;20033;-74
2022/11/01 09:17:38;;;;;;;1.25;0.80;;;15.50;99.90;;;;;;5062044;22;20098;-77
2022/11/01 09:20:04;;;;;;;1.85;0.77;;;15.50;99.90;;;;;;5048653;28;20049;-77
2022/11/01 09:22:29;;;;;;;1.13;0.70;;;15.50;99.90;;;;;;5050012;28;20025;-77
2022/11/01 09:24:57;;;;;;;1.42;0.90;;;15.60;99.90;;;;;;5051756;28;20067;-77
2022/11/01 09:27:23;;;;;;;3.97;0.80;;;15.60;99.90;;;;;;5048497;28;20389;-78
2022/11/01 09:29:48;;;;;;;1.95;0.90;;;15.70;99.90;;;;;;5047908;28;20021;-77
2022/11/01 09:32:14;;;;;;;1.65;0.88;;;15.70;99.90;;;;;;5049442;28;20094;-77
2022/11/01 09:34:40;;;;;;;1.23;0.80;;;15.70;99.90;;;;;;5047657;28;20025;-77
2022/11/01 09:37:05;;;;;;;2.47;1.27;;;15.80;99.90;;;;;;5049717;28;20025;-77
2022/11/01 09:39:31;;;;;;;3.85;2.10;;;15.80;99.90;;;;;;5048855;28;20021;-78
2022/11/01 09:42:09;;;;;;;2.10;1.20;;;15.90;99.90;;;;;;5048178;28;20121;-77
2022/11/01 09:44:43;;;;;;;2.05;0.73;;;16.00;99.90;;;;;;5049611;28;20033;-77
2022/11/01 09:47:19;;;;;;;1.27;0.65;;;16.10;99.90;;;;;;5044225;28;20084;-77
2022/11/01 09:49:50;;;;;;;1.35;0.80;;;16.20;99.90;;;;;;5050532;28;20029;-77
2022/11/01 09:52:21;;;;;;;3.38;0.93;;;16.30;99.90;;;;;;5049804;28;20108;-77
2022/11/01 09:54:47;;;;;;;0.80;0.55;;;16.40;99.90;;;;;;5051835;28;20377;-77
2022/11/01 09:57:23;;;;;;;1.77;0.40;;;16.50;99.90;;;;;;5046629;28;20025;-77
2022/11/01 10:00:05;;;;;;;0.85;0.47;;;16.60;99.90;;;;;;5045668;28;20052;-77
2022/11/01 10:03:08;;;;;;;0.70;0.57;;;16.70;99.90;;;;;;5040658;28;20029;-78
2022/11/01 10:05:39;;;;;;;1.73;1.10;;;16.80;99.90;;;;;;5048275;28;20077;-76
2022/11/01 10:08:54;;;;;;;0.77;0.40;;;16.90;99.90;;;;;;5044274;28;20473;-75
2022/11/01 10:11:46;;;;;;;0.55;0.43;;;17.00;99.90;;;;;;5022826;28;20117;-75
2022/11/01 10:14:20;;;;;;;2.40;0.90;;;17.00;99.90;;;;;;5064144;28;20025;-76
2022/11/01 10:17:10;;;;;;;1.05;0.73;;;17.00;99.90;;;;;;5050141;28;20096;-78
2022/11/01 10:19:38;;;;;;;1.10;0.47;;;17.00;99.90;;;;;;5049859;28;20096;-75
2022/11/01 10:22:27;;;;;;;3.05;1.00;;;17.20;99.90;;;;;;5047912;28;20024;-76
2022/11/01 10:25:29;;;;;;;2.15;0.60;;;17.20;99.90;;;;;;5046847;28;20045;-73
2022/11/01 10:28:19;;;;;;;3.60;1.15;;;17.30;99.90;;;;;;5045149;28;20044;-76
2022/11/01 10:30:53;;;;;;;3.63;0.93;;;17.50;99.90;;;;;;5049717;28;20068;-77
2022/11/01 10:33:37;;;;;;;3.70;0.88;;;17.60;99.90;;;;;;5043521;28;20559;-74
2022/11/01 10:36:09;;;;;;;2.58;1.02;;;17.70;99.90;;;;;;5039720;28;20044;-76
2022/11/01 10:38:56;;;;;;;0.90;0.65;;;17.80;99.90;;;;;;5040354;28;20051;-77
2022/11/01 10:41:39;;;;;;;1.02;0.52;;;17.90;99.90;;;;;;5042054;28;20052;-72
2022/11/01 10:44:14;;;;;;;1.08;0.50;;;18.00;99.90;;;;;;5053963;28;20030;-79
2022/11/01 10:46:44;;;;;;;0.70;0.40;;;18.10;99.90;;;;;;5059036;28;20025;-79
2022/11/01 10:49:24;;;;;;;1.75;0.50;;;18.10;99.90;;;;;;5051532;28;20041;-79
2022/11/01 10:51:55;;;;;;;1.48;0.57;;;18.10;99.90;;;;;;5070291;28;20033;-80
2022/11/01 10:54:27;;;;;;;1.77;0.93;;;18.00;99.90;;;;;;5061719;28;20076;-79
2022/11/01 10:56:56;;;;;;;4.07;0.75;;;18.00;99.90;;;;;;5053183;28;20545;-78
2022/11/01 10:59:28;;;;;;;3.58;1.35;;;18.00;99.90;;;;;;5054823;28;20488;-78
2022/11/01 11:01:55;;;;;;;1.80;1.10;;;18.00;99.90;;;;;;5055609;28;20029;-79
2022/11/01 11:04:23;;;;;;;3.15;1.05;;;18.00;99.90;;;;;;5058830;28;20028;-78
2022/11/01 11:06:50;;;;;;;0.93;0.60;;;18.00;99.90;;;;;;5056162;28;20024;-79
2022/11/01 11:09:33;;;;;;;1.38;0.70;;;18.00;99.90;;;;;;5055077;28;20028;-80
2022/11/01 11:12:02;;;;;;;2.40;0.80;;;18.00;99.90;;;;;;5057576;28;20459;-80
2022/11/01 11:14:31;;;;;;;2.00;0.60;;;18.00;99.90;;;;;;5057967;28;20017;-80
2022/11/01 11:17:01;;;;;;;2.08;0.75;;;18.00;99.90;;;;;;5054042;28;20037;-78
2022/11/01 11:19:32;;;;;;;2.53;0.80;;;18.00;99.90;;;;;;5057094;28;20006;-76
2022/11/01 11:21:59;;;;;;;1.42;0.70;;;17.90;99.90;;;;;;5058314;28;20028;-78
2022/11/01 11:24:29;;;;;;;2.40;0.90;;;17.90;99.90;;;;;;5059724;28;20431;-79
2022/11/01 11:26:56;;;;;;;2.20;0.70;;;17.90;99.90;;;;;;5059738;28;20040;-79
2022/11/01 11:29:47;;;;;;;2.53;1.10;;;17.90;99.90;;;;;;5058786;28;20029;-80
2022/11/01 11:32:17;;;;;;;1.20;0.70;;;17.90;99.90;;;;;;5054267;28;20029;-77
2022/11/01 11:34:52;;;;;;;2.30;0.65;;;17.90;99.90;;;;;;5067771;28;20047;-77
2022/11/01 11:37:21;;;;;;;2.50;0.73;;;17.90;99.90;;;;;;5056581;28;20021;-78
2022/11/01 11:40:16;;;;;;;1.92;0.80;;;17.90;99.90;;;;;;5053813;28;20033;-77
2022/11/01 11:42:42;;;;;;;1.90;1.05;;;17.90;99.90;;;;;;5038213;28;20092;-78
2022/11/01 11:45:21;;;;;;;2.90;1.20;;;17.90;99.90;;;;;;5055786;28;20501;-77
2022/11/01 11:47:46;;;;;;;2.20;1.05;;;17.90;99.90;;;;;;5050465;28;20025;-77
2022/11/01 11:50:18;;;;;;;2.58;0.82;;;17.90;99.90;;;;;;5056973;28;20052;-77
2022/11/01 11:52:47;;;;;;;1.92;0.70;;;17.90;99.90;;;;;;5056974;28;20025;-76
2022/11/01 11:55:35;;;;;;;2.72;0.93;;;17.90;99.90;;;;;;5049514;28;20021;-76
2022/11/01 11:58:04;;;;;;;2.33;0.95;;;17.90;99.90;;;;;;5067592;28;20029;-78
2022/11/01 12:00:33;;;;;;;2.00;0.75;;;17.90;99.90;;;;;;5048185;28;20021;-77
2022/11/01 12:03:04;;;;;;;3.42;1.00;;;17.90;99.90;;;;;;5050758;28;20025;-78
2022/11/01 12:05:30;;;;;;;2.47;0.95;;;17.90;99.90;;;;;;5044967;28;20047;-78
2022/11/01 12:07:56;;;;;;;1.95;1.02;;;17.90;99.90;;;;;;5041842;28;20562;-76
2022/11/01 12:10:35;;;;;;;1.10;0.63;;;17.90;99.90;;;;;;5044633;28;20056;-77
2022/11/01 12:13:03;;;;;;;3.70;1.27;;;17.90;99.90;;;;;;5062982;28;20059;-77
2022/11/01 12:15:34;;;;;;;6.20;1.30;;;17.90;99.90;;;;;;5042637;28;20033;-78
2022/11/01 12:18:15;;;;;;;5.55;1.30;;;17.90;99.90;;;;;;5048653;28;20037;-76
2022/11/01 12:20:41;;;;;;;3.65;1.98;;;17.90;99.90;;;;;;5052125;28;20030;-80
2022/11/01 12:23:15;;;;;;;2.33;1.40;;;17.90;99.90;;;;;;5053671;28;20021;-78
2022/11/01 12:25:45;;;;;;;4.85;1.42;;;17.90;99.90;;;;;;5054659;28;20025;-77
2022/11/01 12:28:46;;;;;;;1.73;1.00;;;17.90;99.90;;;;;;5052690;28;20417;-80
2022/11/01 12:31:20;;;;;;;2.95;1.30;;;18.00;99.90;;;;;;5052495;28;20116;-78
2022/11/01 12:34:11;;;;;;;;;;;18.00;99.90;;;;;;5050967;28;20032;-78
2022/11/01 12:37:14;;;;;;;4.32;1.60;;;17.90;99.90;;;;;;5031997;28;19916;-79
2022/11/01 12:40:03;;;;;;;2.42;0.80;;;18.00;99.90;;;;;;5051750;28;20067;-78
2022/11/01 12:42:39;;;;;;;5.07;1.30;;;18.00;99.90;;;;;;5048413;28;20035;-77
2022/11/01 12:45:21;;;;;;;5.72;1.08;;;18.00;99.90;;;;;;5048255;28;20034;-77
2022/11/01 12:47:54;;;;;;;2.70;1.10;;;18.00;99.90;;;;;;5049528;28;20505;-78
2022/11/01 12:50:40;;;;;;;5.07;1.73;;;18.00;99.90;;;;;;5050188;28;20029;-77
2022/11/01 12:53:19;;;;;;;4.00;1.00;;;18.00;99.90;;;;;;5063646;28;20025;-77
2022/11/01 12:55:46;;;;;;;3.60;1.00;;;18.00;99.90;;;;;;5047517;28;20115;-77
2022/11/01 12:58:17;;;;;;;1.83;0.80;;;18.00;99.90;;;;;;5053869;28;20029;-77
2022/11/01 13:00:47;;;;;;;4.75;1.20;;;17.90;99.90;;;;;;5052563;28;20044;-77
2022/11/01 13:03:41;;;;;;;3.90;1.20;;;17.90;99.90;;;;;;5055903;28;20021;-77
2022/11/01 13:06:22;;;;;;;;;;;17.90;99.90;;;;;;5050832;28;20526;-78
2022/11/01 13:08:54;;;;;;;2.15;1.08;;;17.90;99.90;;;;;;5057104;28;20374;-78
2022/11/01 13:11:40;;;;;;;5.65;1.48;;;18.00;99.90;;;;;;5057578;28;20033;-79